sensor_id;sensor_type;location;lat;lon;timestamp;pressure;altitude;pressure_sealevel;temperature;humidity
11339;BME280;5724;42.684;23.252;2023-03-18T00:01:01;94725.44;;;-0.51;97.65
11339;BME280;5724;42.684;23.252;2023-03-18T00:03:32;94717.91;;;-0.49;97.41
11339;BME280;5724;42.684;23.252;2023-03-18T00:06:11;94723.69;;;-0.71;97.96
11339;BME280;5724;42.684;23.252;2023-03-18T00:08:38;94716.72;;;-0.67;98.99
11339;BME280;5724;42.684;23.252;2023-03-18T00:11:06;94718.63;;;-0.78;99.87
11339;BME280;5724;42.684;23.252;2023-03-18T00:13:33;94710.66;;;-0.88;100.00
11339;BME280;5724;42.684;23.252;2023-03-18T00:15:59;94703.97;;;-0.91;100.00
11339;BME280;5724;42.684;23.252;2023-03-18T00:18:26;94704.84;;;-1.00;100.00
11339;BME280;5724;42.684;23.252;2023-03-18T00:20:51;94706.44;;;-0.99;100.00
11339;BME280;5724;42.684;23.252;2023-03-18T00:23:17;94686.59;;;-0.98;100.00
11339;BME280;5724;42.684;23.252;2023-03-18T00:25:46;94702.91;;;-0.90;100.00
11339;BME280;5724;42.684;23.252;2023-03-18T00:28:11;94703.81;;;-1.09;100.00
11339;BME280;5724;42.684;23.252;2023-03-18T00:30:38;94698.03;;;-1.32;100.00
11339;BME280;5724;42.684;23.252;2023-03-18T00:33:06;94697.53;;;-1.34;100.00
11339;BME280;5724;42.684;23.252;2023-03-18T00:35:32;94694.91;;;-1.49;100.00
11339;BME280;5724;42.684;23.252;2023-03-18T00:37:58;94691.69;;;-1.56;100.00
11339;BME280;5724;42.684;23.252;2023-03-18T00:40:24;94696.03;;;-1.60;100.00
11339;BME280;5724;42.684;23.252;2023-03-18T00:43:08;94677.81;;;-1.68;100.00
11339;BME280;5724;42.684;23.252;2023-03-18T00:45:37;94684.22;;;-1.59;100.00
11339;BME280;5724;42.684;23.252;2023-03-18T00:48:03;94682.09;;;-1.62;100.00
11339;BME280;5724;42.684;23.252;2023-03-18T00:50:28;94682.19;;;-1.83;100.00
11339;BME280;5724;42.684;23.252;2023-03-18T00:52:54;94682.69;;;-1.81;100.00
11339;BME280;5724;42.684;23.252;2023-03-18T00:55:21;94670.06;;;-1.75;100.00
11339;BME280;5724;42.684;23.252;2023-03-18T00:57:46;94672.50;;;-1.84;100.00
11339;BME280;5724;42.684;23.252;2023-03-18T01:00:12;94666.09;;;-1.83;100.00
11339;BME280;5724;42.684;23.252;2023-03-18T01:02:42;94664.47;;;-1.84;100.00
11339;BME280;5724;42.684;23.252;2023-03-18T01:05:07;94666.63;;;-1.86;100.00
11339;BME280;5724;42.684;23.252;2023-03-18T01:07:33;94661.53;;;-1.77;100.00
11339;BME280;5724;42.684;23.252;2023-03-18T01:09:58;94662.00;;;-1.65;100.00
11339;BME280;5724;42.684;23.252;2023-03-18T01:12:24;94660.94;;;-1.64;100.00
11339;BME280;5724;42.684;23.252;2023-03-18T01:14:49;94663.63;;;-1.69;100.00
11339;BME280;5724;42.684;23.252;2023-03-18T01:17:15;94647.88;;;-1.81;100.00
11339;BME280;5724;42.684;23.252;2023-03-18T01:19:40;94660.13;;;-1.64;100.00
11339;BME280;5724;42.684;23.252;2023-03-18T01:22:06;94658.84;;;-1.72;100.00
11339;BME280;5724;42.684;23.252;2023-03-18T01:24:32;94656.41;;;-1.63;100.00
11339;BME280;5724;42.684;23.252;2023-03-18T01:26:58;94652.06;;;-1.59;100.00
11339;BME280;5724;42.684;23.252;2023-03-18T01:29:24;94651.59;;;-1.71;100.00
11339;BME280;5724;42.684;23.252;2023-03-18T01:31:50;94653.72;;;-1.63;100.00
11339;BME280;5724;42.684;23.252;2023-03-18T01:34:15;94655.78;;;-1.55;100.00
11339;BME280;5724;42.684;23.252;2023-03-18T01:36:41;94650.47;;;-1.60;100.00
11339;BME280;5724;42.684;23.252;2023-03-18T01:39:07;94653.72;;;-1.63;100.00
11339;BME280;5724;42.684;23.252;2023-03-18T01:41:35;94653.75;;;-1.74;100.00
11339;BME280;5724;42.684;23.252;2023-03-18T01:44:01;94651.91;;;-1.88;100.00
11339;BME280;5724;42.684;23.252;2023-03-18T01:49:30;94648.41;;;-1.84;100.00
11339;BME280;5724;42.684;23.252;2023-03-18T01:54:25;94654.56;;;-1.73;100.00
11339;BME280;5724;42.684;23.252;2023-03-18T01:56:53;94636.69;;;-1.98;100.00
11339;BME280;5724;42.684;23.252;2023-03-18T01:59:21;94640.19;;;-2.03;100.00
11339;BME280;5724;42.684;23.252;2023-03-18T02:02:10;94631.13;;;-2.12;100.00
11339;BME280;5724;42.684;23.252;2023-03-18T02:04:41;94639.41;;;-2.13;100.00
11339;BME280;5724;42.684;23.252;2023-03-18T02:07:23;94638.59;;;-2.14;100.00
11339;BME280;5724;42.684;23.252;2023-03-18T02:09:50;94636.75;;;-2.23;100.00
11339;BME280;5724;42.684;23.252;2023-03-18T02:12:24;94630.09;;;-2.31;100.00
11339;BME280;5724;42.684;23.252;2023-03-18T02:14:51;94628.72;;;-2.23;100.00
11339;BME280;5724;42.684;23.252;2023-03-18T02:17:21;94629.25;;;-2.11;100.00
11339;BME280;5724;42.684;23.252;2023-03-18T02:22:49;94623.91;;;-2.11;100.00
11339;BME280;5724;42.684;23.252;2023-03-18T02:27:52;94631.66;;;-2.10;100.00
11339;BME280;5724;42.684;23.252;2023-03-18T02:30:25;94632.41;;;-2.04;100.00
11339;BME280;5724;42.684;23.252;2023-03-18T02:32:53;94623.34;;;-2.08;100.00
11339;BME280;5724;42.684;23.252;2023-03-18T02:35:19;94616.13;;;-2.23;100.00
11339;BME280;5724;42.684;23.252;2023-03-18T02:37:45;94624.97;;;-2.22;100.00
11339;BME280;5724;42.684;23.252;2023-03-18T02:42:40;94625.53;;;-2.25;100.00
11339;BME280;5724;42.684;23.252;2023-03-18T02:45:09;94628.78;;;-2.39;100.00
11339;BME280;5724;42.684;23.252;2023-03-18T02:47:39;94611.38;;;-2.46;100.00
11339;BME280;5724;42.684;23.252;2023-03-18T02:50:07;94635.19;;;-2.45;100.00
11339;BME280;5724;42.684;23.252;2023-03-18T02:52:33;94627.97;;;-2.44;100.00
11339;BME280;5724;42.684;23.252;2023-03-18T02:54:59;94632.53;;;-2.50;100.00
11339;BME280;5724;42.684;23.252;2023-03-18T02:57:26;94635.19;;;-2.45;100.00
11339;BME280;5724;42.684;23.252;2023-03-18T02:59:51;94632.53;;;-2.45;100.00
11339;BME280;5724;42.684;23.252;2023-03-18T03:02:16;94634.66;;;-2.37;100.00
11339;BME280;5724;42.684;23.252;2023-03-18T03:04:42;94622.91;;;-2.41;100.00
11339;BME280;5724;42.684;23.252;2023-03-18T03:07:08;94629.06;;;-2.40;100.00
11339;BME280;5724;42.684;23.252;2023-03-18T03:09:34;94622.88;;;-2.36;100.00
11339;BME280;5724;42.684;23.252;2023-03-18T03:11:59;94621.78;;;-2.35;100.00
11339;BME280;5724;42.684;23.252;2023-03-18T03:14:25;94626.91;;;-2.38;100.00
11339;BME280;5724;42.684;23.252;2023-03-18T03:16:50;94633.53;;;-2.15;100.00
11339;BME280;5724;42.684;23.252;2023-03-18T03:19:16;94627.41;;;-2.21;100.00
11339;BME280;5724;42.684;23.252;2023-03-18T03:21:41;94635.69;;;-2.22;100.00
11339;BME280;5724;42.684;23.252;2023-03-18T03:24:07;94634.91;;;-2.33;100.00
11339;BME280;5724;42.684;23.252;2023-03-18T03:26:34;94634.63;;;-2.26;100.00
11339;BME280;5724;42.684;23.252;2023-03-18T03:29:00;94650.13;;;-2.18;100.00
11339;BME280;5724;42.684;23.252;2023-03-18T03:31:26;94645.84;;;-2.24;100.00
11339;BME280;5724;42.684;23.252;2023-03-18T03:33:52;94637.84;;;-2.29;100.00
11339;BME280;5724;42.684;23.252;2023-03-18T03:36:18;94646.41;;;-2.43;100.00
11339;BME280;5724;42.684;23.252;2023-03-18T03:38:43;94642.44;;;-2.50;100.00
11339;BME280;5724;42.684;23.252;2023-03-18T03:41:10;94642.72;;;-2.67;100.00
11339;BME280;5724;42.684;23.252;2023-03-18T03:43:39;94643.78;;;-2.68;100.00
11339;BME280;5724;42.684;23.252;2023-03-18T03:46:07;94641.09;;;-2.63;100.00
11339;BME280;5724;42.684;23.252;2023-03-18T03:48:33;94645.38;;;-2.67;100.00
11339;BME280;5724;42.684;23.252;2023-03-18T03:51:00;94647.00;;;-2.76;100.00
11339;BME280;5724;42.684;23.252;2023-03-18T03:53:26;94655.00;;;-2.81;100.00
11339;BME280;5724;42.684;23.252;2023-03-18T03:55:52;94647.25;;;-2.93;100.00
11339;BME280;5724;42.684;23.252;2023-03-18T03:58:19;94657.66;;;-3.02;100.00
11339;BME280;5724;42.684;23.252;2023-03-18T04:00:45;94649.66;;;-3.17;100.00
11339;BME280;5724;42.684;23.252;2023-03-18T04:03:10;94646.97;;;-3.17;100.00
11339;BME280;5724;42.684;23.252;2023-03-18T04:05:36;94653.13;;;-3.17;100.00
11339;BME280;5724;42.684;23.252;2023-03-18T04:08:02;94651.25;;;-3.16;100.00
11339;BME280;5724;42.684;23.252;2023-03-18T04:10:27;94631.44;;;-3.30;100.00
11339;BME280;5724;42.684;23.252;2023-03-18T04:12:53;94658.75;;;-3.03;100.00
11339;BME280;5724;42.684;23.252;2023-03-18T04:15:20;94656.09;;;-2.88;100.00
11339;BME280;5724;42.684;23.252;2023-03-18T04:17:47;94659.28;;;-2.75;100.00
11339;BME280;5724;42.684;23.252;2023-03-18T04:20:13;94660.34;;;-2.61;100.00
11339;BME280;5724;42.684;23.252;2023-03-18T04:22:40;94666.78;;;-2.47;100.00
11339;BME280;5724;42.684;23.252;2023-03-18T04:25:06;94669.97;;;-2.35;100.00
11339;BME280;5724;42.684;23.252;2023-03-18T04:27:32;94671.88;;;-2.76;100.00
11339;BME280;5724;42.684;23.252;2023-03-18T04:29:57;94648.56;;;-3.26;100.00
11339;BME280;5724;42.684;23.252;2023-03-18T04:32:23;94680.34;;;-3.20;100.00
11339;BME280;5724;42.684;23.252;2023-03-18T04:34:48;94681.44;;;-3.21;100.00
11339;BME280;5724;42.684;23.252;2023-03-18T04:37:14;94690.75;;;-3.33;100.00
11339;BME280;5724;42.684;23.252;2023-03-18T04:39:44;94685.66;;;-3.45;100.00
11339;BME280;5724;42.684;23.252;2023-03-18T04:42:10;94689.94;;;-3.44;100.00
11339;BME280;5724;42.684;23.252;2023-03-18T04:44:37;94684.88;;;-3.30;100.00
11339;BME280;5724;42.684;23.252;2023-03-18T04:47:02;94688.63;;;-3.31;100.00
11339;BME280;5724;42.684;23.252;2023-03-18T04:49:28;94697.72;;;-3.22;100.00
11339;BME280;5724;42.684;23.252;2023-03-18T04:51:54;94694.25;;;-3.23;100.00
11339;BME280;5724;42.684;23.252;2023-03-18T04:54:19;94699.88;;;-3.14;100.00
11339;BME280;5724;42.684;23.252;2023-03-18T04:56:44;94699.34;;;-3.11;100.00
11339;BME280;5724;42.684;23.252;2023-03-18T04:59:11;94695.59;;;-3.10;100.00
11339;BME280;5724;42.684;23.252;2023-03-18T05:01:36;94693.47;;;-3.13;100.00
11339;BME280;5724;42.684;23.252;2023-03-18T05:04:02;94706.06;;;-3.08;100.00
11339;BME280;5724;42.684;23.252;2023-03-18T05:06:29;94699.91;;;-2.94;100.00
11339;BME280;5724;42.684;23.252;2023-03-18T05:08:56;94698.06;;;-2.78;100.00
11339;BME280;5724;42.684;23.252;2023-03-18T05:11:23;94696.22;;;-2.67;100.00
11339;BME280;5724;42.684;23.252;2023-03-18T05:13:49;94702.38;;;-2.41;100.00
11339;BME280;5724;42.684;23.252;2023-03-18T05:16:15;94705.53;;;-2.19;100.00
11339;BME280;5724;42.684;23.252;2023-03-18T05:18:40;94700.16;;;-1.98;100.00
11339;BME280;5724;42.684;23.252;2023-03-18T05:21:09;94704.50;;;-2.38;100.00
11339;BME280;5724;42.684;23.252;2023-03-18T05:23:35;94705.31;;;-2.58;100.00
11339;BME280;5724;42.684;23.252;2023-03-18T05:26:01;94705.00;;;-2.62;100.00
11339;BME280;5724;42.684;23.252;2023-03-18T05:28:26;94695.13;;;-2.66;100.00
11339;BME280;5724;42.684;23.252;2023-03-18T05:30:52;94697.81;;;-2.66;100.00
11339;BME280;5724;42.684;23.252;2023-03-18T05:33:18;94709.56;;;-2.57;100.00
11339;BME280;5724;42.684;23.252;2023-03-18T05:35:44;94690.59;;;-2.61;100.00
11339;BME280;5724;42.684;23.252;2023-03-18T05:38:09;94688.19;;;-2.47;100.00
11339;BME280;5724;42.684;23.252;2023-03-18T05:40:35;94695.38;;;-2.42;100.00
11339;BME280;5724;42.684;23.252;2023-03-18T05:43:01;94687.09;;;-2.36;100.00
11339;BME280;5724;42.684;23.252;2023-03-18T05:45:26;94687.38;;;-2.37;100.00
11339;BME280;5724;42.684;23.252;2023-03-18T05:47:52;94698.88;;;-2.21;100.00
11339;BME280;5724;42.684;23.252;2023-03-18T05:50:31;94689.19;;;-2.22;100.00
11339;BME280;5724;42.684;23.252;2023-03-18T05:52:58;94699.91;;;-2.12;100.00
11339;BME280;5724;42.684;23.252;2023-03-18T05:55:24;94695.09;;;-2.10;100.00
11339;BME280;5724;42.684;23.252;2023-03-18T05:57:49;94705.22;;;-1.92;100.00
11339;BME280;5724;42.684;23.252;2023-03-18T06:00:15;94713.75;;;-1.85;100.00
11339;BME280;5724;42.684;23.252;2023-03-18T06:02:43;94714.34;;;-1.93;100.00
11339;BME280;5724;42.684;23.252;2023-03-18T06:05:09;94698.84;;;-2.11;100.00
11339;BME280;5724;42.684;23.252;2023-03-18T06:07:35;94721.28;;;-1.97;100.00
11339;BME280;5724;42.684;23.252;2023-03-18T06:10:01;94715.94;;;-1.92;100.00
11339;BME280;5724;42.684;23.252;2023-03-18T06:12:26;94727.19;;;-2.05;100.00
11339;BME280;5724;42.684;23.252;2023-03-18T06:14:53;94720.25;;;-2.16;100.00
11339;BME280;5724;42.684;23.252;2023-03-18T06:17:19;94718.09;;;-2.14;100.00
11339;BME280;5724;42.684;23.252;2023-03-18T06:19:45;94725.31;;;-1.99;100.00
11339;BME280;5724;42.684;23.252;2023-03-18T06:22:11;94724.50;;;-2.05;100.00
11339;BME280;5724;42.684;23.252;2023-03-18T06:24:36;94729.34;;;-2.02;100.00
11339;BME280;5724;42.684;23.252;2023-03-18T06:27:02;94732.28;;;-1.98;100.00
11339;BME280;5724;42.684;23.252;2023-03-18T06:29:28;94723.41;;;-1.89;100.00
11339;BME280;5724;42.684;23.252;2023-03-18T06:31:54;94724.47;;;-1.85;100.00
11339;BME280;5724;42.684;23.252;2023-03-18T06:34:20;94723.41;;;-1.94;100.00
11339;BME280;5724;42.684;23.252;2023-03-18T06:36:45;94714.09;;;-2.02;100.00
11339;BME280;5724;42.684;23.252;2023-03-18T06:39:11;94706.03;;;-1.96;100.00
11339;BME280;5724;42.684;23.252;2023-03-18T06:41:38;94708.47;;;-2.00;100.00
11339;BME280;5724;42.684;23.252;2023-03-18T06:44:04;94705.50;;;-1.98;100.00
11339;BME280;5724;42.684;23.252;2023-03-18T06:46:30;94704.97;;;-1.90;100.00
11339;BME280;5724;42.684;23.252;2023-03-18T06:48:56;94692.88;;;-1.83;100.00
11339;BME280;5724;42.684;23.252;2023-03-18T06:51:21;94696.09;;;-1.81;100.00
11339;BME280;5724;42.684;23.252;2023-03-18T06:53:47;94692.53;;;-1.66;100.00
11339;BME280;5724;42.684;23.252;2023-03-18T06:56:12;94707.75;;;-1.46;100.00
11339;BME280;5724;42.684;23.252;2023-03-18T06:58:41;94705.91;;;-1.51;100.00
11339;BME280;5724;42.684;23.252;2023-03-18T07:01:06;94702.19;;;-1.60;100.00
11339;BME280;5724;42.684;23.252;2023-03-18T07:03:33;94706.72;;;-1.60;100.00
11339;BME280;5724;42.684;23.252;2023-03-18T07:05:58;94703.97;;;-1.40;100.00
11339;BME280;5724;42.684;23.252;2023-03-18T07:08:25;94699.97;;;-1.48;100.00
11339;BME280;5724;42.684;23.252;2023-03-18T07:10:52;94698.94;;;-1.52;100.00
11339;BME280;5724;42.684;23.252;2023-03-18T07:13:18;94704.25;;;-1.41;100.00
11339;BME280;5724;42.684;23.252;2023-03-18T07:15:44;94699.94;;;-1.32;100.00
11339;BME280;5724;42.684;23.252;2023-03-18T07:18:09;94691.38;;;-1.39;100.00
11339;BME280;5724;42.684;23.252;2023-03-18T07:20:36;94703.69;;;-1.33;100.00
11339;BME280;5724;42.684;23.252;2023-03-18T07:23:02;94707.28;;;-1.09;100.00
11339;BME280;5724;42.684;23.252;2023-03-18T07:25:28;94706.47;;;-1.04;100.00
11339;BME280;5724;42.684;23.252;2023-03-18T07:27:56;94712.38;;;-1.02;100.00
11339;BME280;5724;42.684;23.252;2023-03-18T07:30:21;94697.56;;;-0.95;100.00
11339;BME280;5724;42.684;23.252;2023-03-18T07:32:47;94706.72;;;-0.62;100.00
11339;BME280;5724;42.684;23.252;2023-03-18T07:35:14;94708.63;;;-0.62;100.00
11339;BME280;5724;42.684;23.252;2023-03-18T07:37:40;94717.53;;;-0.67;100.00
11339;BME280;5724;42.684;23.252;2023-03-18T07:40:07;94714.75;;;-0.56;100.00
11339;BME280;5724;42.684;23.252;2023-03-18T07:42:33;94712.94;;;-0.66;100.00
11339;BME280;5724;42.684;23.252;2023-03-18T07:44:59;94701.41;;;-0.67;100.00
11339;BME280;5724;42.684;23.252;2023-03-18T07:47:24;94692.03;;;-0.35;100.00
11339;BME280;5724;42.684;23.252;2023-03-18T07:49:50;94713.63;;;-0.16;100.00
11339;BME280;5724;42.684;23.252;2023-03-18T07:52:18;94707.06;;;-0.05;100.00
11339;BME280;5724;42.684;23.252;2023-03-18T07:54:44;94710.97;;;0.08;100.00
11339;BME280;5724;42.684;23.252;2023-03-18T07:57:09;94716.03;;;0.14;100.00
11339;BME280;5724;42.684;23.252;2023-03-18T07:59:35;94708.44;;;0.21;100.00
11339;BME280;5724;42.684;23.252;2023-03-18T08:02:02;94711.22;;;0.35;100.00
11339;BME280;5724;42.684;23.252;2023-03-18T08:04:30;94706.44;;;0.32;100.00
11339;BME280;5724;42.684;23.252;2023-03-18T08:06:56;94710.66;;;0.38;100.00
11339;BME280;5724;42.684;23.252;2023-03-18T08:09:22;94708.31;;;0.55;100.00
11339;BME280;5724;42.684;23.252;2023-03-18T08:11:48;94711.50;;;0.81;100.00
11339;BME280;5724;42.684;23.252;2023-03-18T08:14:14;94705.06;;;1.01;100.00
11339;BME280;5724;42.684;23.252;2023-03-18T08:16:39;94699.97;;;1.19;100.00
11339;BME280;5724;42.684;23.252;2023-03-18T08:19:05;94699.31;;;1.46;100.00
11339;BME280;5724;42.684;23.252;2023-03-18T08:21:30;94706.22;;;1.33;98.20
11339;BME280;5724;42.684;23.252;2023-03-18T08:23:56;94699.31;;;1.64;97.77
11339;BME280;5724;42.684;23.252;2023-03-18T08:26:22;94705.75;;;2.28;98.38
11339;BME280;5724;42.684;23.252;2023-03-18T08:28:48;94703.25;;;2.87;96.26
11339;BME280;5724;42.684;23.252;2023-03-18T08:31:13;94707.38;;;3.48;95.04
11339;BME280;5724;42.684;23.252;2023-03-18T08:33:39;94720.09;;;3.70;87.49
11339;BME280;5724;42.684;23.252;2023-03-18T08:36:06;94719.84;;;4.02;86.74
11339;BME280;5724;42.684;23.252;2023-03-18T08:38:32;94715.69;;;3.96;84.06
11339;BME280;5724;42.684;23.252;2023-03-18T08:40:58;94710.28;;;3.96;81.81
11339;BME280;5724;42.684;23.252;2023-03-18T08:43:24;94699.00;;;4.03;80.04
11339;BME280;5724;42.684;23.252;2023-03-18T08:45:53;94707.28;;;4.29;78.65
11339;BME280;5724;42.684;23.252;2023-03-18T08:48:19;94714.19;;;4.75;77.78
11339;BME280;5724;42.684;23.252;2023-03-18T08:50:45;94714.75;;;5.03;77.39
11339;BME280;5724;42.684;23.252;2023-03-18T08:53:11;94718.97;;;5.35;76.13
11339;BME280;5724;42.684;23.252;2023-03-18T08:55:37;94720.09;;;5.68;73.79
11339;BME280;5724;42.684;23.252;2023-03-18T08:58:04;94720.78;;;5.83;72.62
11339;BME280;5724;42.684;23.252;2023-03-18T09:00:31;94716.13;;;5.66;73.44
11339;BME280;5724;42.684;23.252;2023-03-18T09:02:57;94719.81;;;6.13;73.10
11339;BME280;5724;42.684;23.252;2023-03-18T09:05:23;94725.63;;;6.58;71.84
11339;BME280;5724;42.684;23.252;2023-03-18T09:07:49;94723.31;;;6.86;69.84
11339;BME280;5724;42.684;23.252;2023-03-18T09:10:15;94716.31;;;7.15;67.93
11339;BME280;5724;42.684;23.252;2023-03-18T09:12:43;94724.91;;;7.46;67.50
11339;BME280;5724;42.684;23.252;2023-03-18T09:15:11;94724.94;;;7.88;64.60
11339;BME280;5724;42.684;23.252;2023-03-18T09:17:38;94720.16;;;7.64;62.07
11339;BME280;5724;42.684;23.252;2023-03-18T09:20:10;94719.84;;;7.66;61.07
11339;BME280;5724;42.684;23.252;2023-03-18T09:22:37;94723.47;;;7.70;61.68
11339;BME280;5724;42.684;23.252;2023-03-18T09:25:04;94727.25;;;7.98;61.33
11339;BME280;5724;42.684;23.252;2023-03-18T09:27:30;94714.31;;;8.16;60.31
11339;BME280;5724;42.684;23.252;2023-03-18T09:29:56;94726.03;;;8.50;59.12
11339;BME280;5724;42.684;23.252;2023-03-18T09:32:22;94726.50;;;8.52;57.72
11339;BME280;5724;42.684;23.252;2023-03-18T09:34:47;94715.19;;;8.74;55.20
11339;BME280;5724;42.684;23.252;2023-03-18T09:37:13;94716.78;;;8.75;54.19
11339;BME280;5724;42.684;23.252;2023-03-18T09:39:40;94711.47;;;9.03;53.12
11339;BME280;5724;42.684;23.252;2023-03-18T09:42:32;94709.97;;;8.81;50.08
11339;BME280;5724;42.684;23.252;2023-03-18T09:50:41;94704.34;;;9.11;49.38
11339;BME280;5724;42.684;23.252;2023-03-18T09:53:22;94705.69;;;9.05;49.76
11339;BME280;5724;42.684;23.252;2023-03-18T09:55:58;94706.91;;;8.95;47.88
11339;BME280;5724;42.684;23.252;2023-03-18T10:01:05;94710.91;;;8.98;49.62
11339;BME280;5724;42.684;23.252;2023-03-18T10:03:53;94707.63;;;9.16;49.89
11339;BME280;5724;42.684;23.252;2023-03-18T10:06:23;94696.06;;;9.07;48.46
11339;BME280;5724;42.684;23.252;2023-03-18T10:11:45;94705.31;;;9.55;52.46
11339;BME280;5724;42.684;23.252;2023-03-18T10:17:27;94701.22;;;10.14;47.22
11339;BME280;5724;42.684;23.252;2023-03-18T10:19:59;94692.25;;;10.01;43.53
11339;BME280;5724;42.684;23.252;2023-03-18T10:23:00;94701.72;;;10.31;43.87
11339;BME280;5724;42.684;23.252;2023-03-18T10:25:43;94688.25;;;9.70;42.91
11339;BME280;5724;42.684;23.252;2023-03-18T10:36:18;94691.84;;;9.46;42.76
11339;BME280;5724;42.684;23.252;2023-03-18T10:38:48;94687.28;;;9.14;42.21
11339;BME280;5724;42.684;23.252;2023-03-18T10:41:24;94692.53;;;8.16;43.49
11339;BME280;5724;42.684;23.252;2023-03-18T10:43:54;94684.47;;;8.41;44.24
11339;BME280;5724;42.684;23.252;2023-03-18T10:46:21;94683.41;;;8.33;44.12
11339;BME280;5724;42.684;23.252;2023-03-18T10:48:54;94685.03;;;8.46;44.36
11339;BME280;5724;42.684;23.252;2023-03-18T10:56:36;94678.53;;;8.96;42.62
11339;BME280;5724;42.684;23.252;2023-03-18T10:59:09;94668.88;;;9.35;41.11
11339;BME280;5724;42.684;23.252;2023-03-18T11:01:37;94665.97;;;9.68;43.15
11339;BME280;5724;42.684;23.252;2023-03-18T11:04:04;94666.25;;;10.19;41.92
11339;BME280;5724;42.684;23.252;2023-03-18T11:07:13;94668.13;;;10.59;41.56
11339;BME280;5724;42.684;23.252;2023-03-18T11:09:41;94667.00;;;10.04;41.48
11339;BME280;5724;42.684;23.252;2023-03-18T11:12:25;94682.56;;;8.53;46.74
11339;BME280;5724;42.684;23.252;2023-03-18T11:14:53;94682.50;;;7.54;50.67
11339;BME280;5724;42.684;23.252;2023-03-18T11:17:33;94684.94;;;7.89;50.51
11339;BME280;5724;42.684;23.252;2023-03-18T11:22:44;94679.50;;;7.68;50.03
11339;BME280;5724;42.684;23.252;2023-03-18T11:25:16;94670.94;;;7.57;49.95
11339;BME280;5724;42.684;23.252;2023-03-18T11:27:45;94673.94;;;7.64;53.50
11339;BME280;5724;42.684;23.252;2023-03-18T11:32:52;94670.34;;;7.72;48.06
11339;BME280;5724;42.684;23.252;2023-03-18T11:35:21;94662.25;;;7.85;48.93
11339;BME280;5724;42.684;23.252;2023-03-18T11:37:48;94665.13;;;8.00;46.53
11339;BME280;5724;42.684;23.252;2023-03-18T11:42:42;94658.66;;;8.83;44.77
11339;BME280;5724;42.684;23.252;2023-03-18T11:45:33;94661.38;;;8.96;42.20
11339;BME280;5724;42.684;23.252;2023-03-18T11:48:00;94645.16;;;9.11;42.90
11339;BME280;5724;42.684;23.252;2023-03-18T11:50:53;94658.56;;;9.04;41.26
11339;BME280;5724;42.684;23.252;2023-03-18T11:53:32;94640.59;;;8.67;40.28
11339;BME280;5724;42.684;23.252;2023-03-18T11:56:26;94657.16;;;8.49;41.53
11339;BME280;5724;42.684;23.252;2023-03-18T12:04:37;94653.81;;;8.31;40.71
11339;BME280;5724;42.684;23.252;2023-03-18T12:20:40;94657.19;;;9.10;41.81
11339;BME280;5724;42.684;23.252;2023-03-18T12:26:17;94662.63;;;8.62;42.78
11339;BME280;5724;42.684;23.252;2023-03-18T12:31:44;94660.47;;;8.67;43.67
11339;BME280;5724;42.684;23.252;2023-03-18T12:34:24;94638.75;;;8.46;42.53
11339;BME280;5724;42.684;23.252;2023-03-18T12:37:48;94635.50;;;8.65;44.79
11339;BME280;5724;42.684;23.252;2023-03-18T12:40:15;94643.31;;;9.15;42.35
11339;BME280;5724;42.684;23.252;2023-03-18T12:45:34;94643.09;;;8.96;39.84
11339;BME280;5724;42.684;23.252;2023-03-18T12:48:26;94648.13;;;9.18;40.76
11339;BME280;5724;42.684;23.252;2023-03-18T12:50:58;94642.19;;;9.16;40.97
11339;BME280;5724;42.684;23.252;2023-03-18T12:53:30;94643.31;;;9.40;41.81
11339;BME280;5724;42.684;23.252;2023-03-18T12:56:00;94647.09;;;9.63;41.74
11339;BME280;5724;42.684;23.252;2023-03-18T12:58:30;94646.19;;;8.95;39.99
11339;BME280;5724;42.684;23.252;2023-03-18T13:01:11;94641.75;;;9.02;41.43
11339;BME280;5724;42.684;23.252;2023-03-18T13:03:54;94629.81;;;9.31;40.17
11339;BME280;5724;42.684;23.252;2023-03-18T13:06:38;94627.41;;;9.30;40.68
11339;BME280;5724;42.684;23.252;2023-03-18T13:17:10;94645.38;;;8.70;40.55
11339;BME280;5724;42.684;23.252;2023-03-18T13:19:40;94643.34;;;8.91;41.42
11339;BME280;5724;42.684;23.252;2023-03-18T13:30:17;94648.25;;;9.62;39.21
11339;BME280;5724;42.684;23.252;2023-03-18T13:32:59;94645.22;;;9.92;38.87
11339;BME280;5724;42.684;23.252;2023-03-18T13:41:01;94643.56;;;10.03;37.33
11339;BME280;5724;42.684;23.252;2023-03-18T13:43:32;94651.31;;;10.01;38.58
11339;BME280;5724;42.684;23.252;2023-03-18T13:45:58;94639.38;;;10.06;38.40
11339;BME280;5724;42.684;23.252;2023-03-18T13:48:31;94638.59;;;10.21;38.56
11339;BME280;5724;42.684;23.252;2023-03-18T13:50:58;94633.13;;;10.49;37.55
11339;BME280;5724;42.684;23.252;2023-03-18T13:53:40;94620.44;;;10.41;37.13
11339;BME280;5724;42.684;23.252;2023-03-18T13:59:12;94641.16;;;11.05;36.27
11339;BME280;5724;42.684;23.252;2023-03-18T14:01:51;94631.47;;;10.76;36.08
11339;BME280;5724;42.684;23.252;2023-03-18T14:04:28;94629.69;;;9.80;36.62
11339;BME280;5724;42.684;23.252;2023-03-18T14:07:18;94629.97;;;9.91;40.69
11339;BME280;5724;42.684;23.252;2023-03-18T14:22:39;94627.06;;;9.31;38.55
11339;BME280;5724;42.684;23.252;2023-03-18T14:27:47;94631.66;;;9.67;38.41
11339;BME280;5724;42.684;23.252;2023-03-18T14:33:01;94629.84;;;10.27;37.79
11339;BME280;5724;42.684;23.252;2023-03-18T14:35:50;94625.38;;;10.51;37.84
11339;BME280;5724;42.684;23.252;2023-03-18T14:38:19;94623.97;;;10.57;36.65
11339;BME280;5724;42.684;23.252;2023-03-18T14:40:49;94633.59;;;10.67;36.15
11339;BME280;5724;42.684;23.252;2023-03-18T14:43:24;94631.47;;;10.76;35.52
11339;BME280;5724;42.684;23.252;2023-03-18T14:45:55;94634.31;;;10.64;34.52
11339;BME280;5724;42.684;23.252;2023-03-18T14:48:30;94634.47;;;10.55;34.74
11339;BME280;5724;42.684;23.252;2023-03-18T14:51:02;94640.19;;;10.50;34.84
11339;BME280;5724;42.684;23.252;2023-03-18T14:53:33;94638.28;;;10.22;35.49
11339;BME280;5724;42.684;23.252;2023-03-18T14:56:00;94640.75;;;10.27;35.48
11339;BME280;5724;42.684;23.252;2023-03-18T14:58:27;94642.78;;;10.30;36.12
11339;BME280;5724;42.684;23.252;2023-03-18T15:00:56;94636.94;;;10.44;35.76
11339;BME280;5724;42.684;23.252;2023-03-18T15:03:30;94629.25;;;10.50;36.31
11339;BME280;5724;42.684;23.252;2023-03-18T15:06:01;94635.78;;;10.77;35.53